createdAt,value
2019-06-01T00:01:44.692Z,101916.87
2019-06-01T00:06:54.316Z,101926.64
2019-06-01T00:12:01.331Z,101903.00
2019-06-01T00:17:04.467Z,101896.33
2019-06-01T00:22:06.299Z,101889.45
2019-06-01T00:27:09.012Z,101896.83
2019-06-01T00:32:10.801Z,101909.06
2019-06-01T00:37:12.911Z,101877.03
2019-06-01T00:42:14.740Z,101893.80
2019-06-01T00:47:19.926Z,101900.47
2019-06-01T00:52:21.589Z,101906.27
2019-06-01T00:57:23.617Z,101917.43
2019-06-01T01:02:25.434Z,101922.00
2019-06-01T01:07:27.302Z,101896.33
2019-06-01T01:12:29.133Z,101917.61
2019-06-01T01:17:30.935Z,101931.72
2019-06-01T01:22:32.778Z,101907.34
2019-06-01T01:27:34.929Z,101907.38
2019-06-01T01:32:38.117Z,101931.60
2019-06-01T01:37:40.058Z,101923.73
2019-06-01T01:42:44.893Z,101942.72
2019-06-01T01:47:46.836Z,101947.53
2019-06-01T01:52:48.638Z,101911.25
2019-06-01T01:57:51.772Z,101935.71
2019-06-01T02:02:54.049Z,101914.89
2019-06-01T02:07:56.998Z,101874.94
2019-06-01T02:13:00.065Z,101897.42
2019-06-01T02:18:04.827Z,101873.55
2019-06-01T02:23:06.658Z,101860.55
2019-06-01T02:28:08.756Z,101849.00
2019-06-01T02:33:11.023Z,101843.30
2019-06-01T02:38:12.818Z,101870.06
2019-06-01T02:43:14.706Z,101824.86
2019-06-01T02:48:19.595Z,101795.22
2019-06-01T02:53:23.792Z,101799.06
2019-06-01T02:58:25.623Z,101812.06
2019-06-01T03:03:27.430Z,101803.11
2019-06-01T03:08:31.046Z,101800.70
2019-06-01T03:13:36.155Z,101795.28
2019-06-01T03:18:41.654Z,101799.13
2019-06-01T03:23:46.817Z,101800.34
2019-06-01T03:28:51.400Z,101799.67
2019-06-01T03:33:55.742Z,101802.27
2019-06-01T03:38:59.947Z,101790.28
2019-06-01T03:44:04.466Z,101798.13
2019-06-01T03:49:09.791Z,101804.17
2019-06-01T03:54:13.161Z,101802.03
2019-06-01T03:59:15.073Z,101799.69
2019-06-01T04:04:16.879Z,101799.48
2019-06-01T04:09:18.693Z,101805.42
2019-06-01T04:14:20.532Z,101805.02
2019-06-01T04:19:22.334Z,101808.80
2019-06-01T04:24:24.449Z,101819.11
2019-06-01T04:29:26.287Z,101828.00
2019-06-01T04:34:31.844Z,101815.31
2019-06-01T04:39:33.661Z,101813.89
2019-06-01T04:44:35.506Z,101843.00
2019-06-01T04:49:37.082Z,101846.66
2019-06-01T04:54:39.369Z,101890.78
2019-06-01T04:59:41.176Z,101885.36
2019-06-01T05:04:43.598Z,101892.41
2019-06-01T05:09:45.956Z,101875.34
2019-06-01T05:14:47.657Z,101927.32
2019-06-01T05:19:49.460Z,101963.42
2019-06-01T05:24:51.306Z,101938.36
2019-06-01T05:29:55.952Z,101972.17
2019-06-01T05:34:59.755Z,101983.97
2019-06-01T05:40:01.604Z,101995.23
2019-06-01T05:45:04.939Z,102076.94
2019-06-01T05:50:07.395Z,102162.81
2019-06-01T05:55:10.381Z,102218.63
2019-06-01T06:00:13.212Z,102220.15
2019-06-01T06:05:15.084Z,102223.55
2019-06-01T06:10:18.477Z,102221.37
2019-06-01T06:15:21.803Z,102210.52
2019-06-01T06:20:23.724Z,102234.61
2019-06-01T06:25:28.659Z,102252.77
2019-06-01T06:30:29.557Z,102258.77
2019-06-01T06:35:31.576Z,102221.02
2019-06-01T06:40:33.491Z,102221.02
2019-06-01T06:45:38.276Z,102224.81
2019-06-01T06:50:40.096Z,102252.30
2019-06-01T06:55:41.910Z,102205.56
2019-06-01T07:00:43.782Z,102261.35
2019-06-01T07:05:46.945Z,102265.27
2019-06-01T07:10:50.590Z,102254.97
2019-06-01T07:15:52.664Z,102274.96
2019-06-01T07:20:58.026Z,102262.33
2019-06-01T07:26:03.827Z,102276.98
2019-06-01T07:31:05.692Z,102273.05
2019-06-01T07:36:07.672Z,102268.39
2019-06-01T07:41:09.481Z,102271.82
2019-06-01T07:46:11.326Z,102288.75
2019-06-01T07:51:13.250Z,102299.00
2019-06-01T07:56:17.797Z,102307.87
2019-06-01T08:01:19.624Z,102307.36
2019-06-01T08:06:23.952Z,102310.39
2019-06-01T08:11:30.089Z,102253.91
2019-06-01T08:16:32.025Z,102234.82
2019-06-01T08:21:34.059Z,102211.36
2019-06-01T08:26:40.888Z,102246.92
2019-06-01T08:31:42.736Z,102210.64
2019-06-01T08:36:44.684Z,102229.66
2019-06-01T08:41:46.497Z,102235.69
2019-06-01T08:46:48.322Z,102224.25
2019-06-01T08:51:50.143Z,102245.44
2019-06-01T08:56:52.010Z,102236.55
2019-06-01T09:01:53.806Z,102235.77
2019-06-01T09:06:55.780Z,102230.49
2019-06-01T09:11:57.614Z,102244.47
2019-06-01T09:16:59.560Z,102234.17
2019-06-01T09:22:01.385Z,102236.11
2019-06-01T09:27:04.167Z,102227.84
2019-06-01T09:32:10.487Z,102243.09
2019-06-01T09:37:09.757Z,102250.72
2019-06-01T09:42:11.579Z,102239.31
2019-06-01T09:47:13.591Z,102238.02
2019-06-01T09:52:15.442Z,102223.34
2019-06-01T09:57:19.391Z,102230.89
2019-06-01T10:02:22.107Z,102234.86
2019-06-01T10:07:23.962Z,102233.10
2019-06-01T10:12:25.771Z,102230.17
2019-06-01T10:17:27.627Z,102229.52
2019-06-01T10:22:33.097Z,102225.53
2019-06-01T10:27:36.739Z,102230.95
2019-06-01T10:32:39.913Z,102237.42
2019-06-01T10:37:42.230Z,102234.01
2019-06-01T10:42:44.079Z,102235.48
2019-06-01T10:47:48.714Z,102237.52
2019-06-01T10:52:50.526Z,102228.94
2019-06-01T10:57:52.374Z,102225.45
2019-06-01T11:02:57.055Z,102225.16
2019-06-01T11:07:58.871Z,102218.77
2019-06-01T11:13:00.980Z,102209.65
2019-06-01T11:18:05.533Z,102210.77
2019-06-01T11:23:07.357Z,102204.02
2019-06-01T11:28:09.464Z,102209.89
2019-06-01T11:33:11.273Z,102203.35
2019-06-01T11:38:13.208Z,102202.20
2019-06-01T11:43:15.387Z,102200.77
2019-06-01T11:48:19.387Z,102197.96
2019-06-01T11:53:21.365Z,102199.20
2019-06-01T11:58:27.108Z,102195.34
2019-06-01T12:03:31.222Z,102205.09
2019-06-01T12:08:34.268Z,102198.67
2019-06-01T12:13:37.969Z,102203.27
2019-06-01T12:18:40.632Z,102200.09
2019-06-01T12:23:43.230Z,102194.80
2019-06-01T12:28:45.818Z,102187.87
2019-06-01T12:33:49.635Z,102185.13
2019-06-01T12:38:51.913Z,102184.22
2019-06-01T12:44:12.936Z,102178.08
2019-06-01T12:49:14.775Z,102174.83
2019-06-01T12:54:16.453Z,102161.21
2019-06-01T12:59:18.416Z,102155.09
2019-06-01T13:04:20.422Z,102156.08
2019-06-01T13:09:23.674Z,102165.16
2019-06-01T13:14:25.788Z,102163.06
2019-06-01T13:19:29.562Z,102151.49
2019-06-01T13:24:31.593Z,102146.65
2019-06-01T13:29:35.966Z,102137.91
2019-06-01T13:34:37.678Z,102139.08
2019-06-01T13:39:39.519Z,102129.61
2019-06-01T13:44:41.351Z,102127.06
2019-06-01T13:49:46.844Z,102115.94
2019-06-01T13:54:52.457Z,102106.86
2019-06-01T13:59:57.399Z,102119.45
2019-06-01T14:04:59.124Z,102113.27
2019-06-01T14:10:01.899Z,102106.50
2019-06-01T14:15:04.297Z,102102.32
2019-06-01T14:20:06.998Z,102101.68
2019-06-01T14:25:14.183Z,102103.90
2019-06-01T14:30:14.468Z,102106.91
2019-06-01T14:35:16.279Z,102103.84
2019-06-01T14:40:18.083Z,102105.25
2019-06-01T14:45:20.158Z,102096.33
2019-06-01T14:50:24.933Z,102090.83
2019-06-01T14:55:26.956Z,102088.78
2019-06-01T15:00:28.762Z,102088.39
2019-06-01T15:05:35.432Z,102076.91
2019-06-01T15:10:40.090Z,102087.92
2019-06-01T15:15:42.196Z,102080.32
2019-06-01T15:20:44.009Z,102081.37
2019-06-01T15:25:47.644Z,102073.14
2019-06-01T15:30:50.730Z,102070.58
2019-06-01T15:35:55.983Z,102071.22
2019-06-01T15:40:58.224Z,102062.64
2019-06-01T15:46:06.560Z,102049.63
2019-06-01T15:51:10.595Z,102042.77
2019-06-01T15:56:14.424Z,102036.69
2019-06-01T16:01:18.999Z,102031.78
2019-06-01T16:06:20.859Z,102025.22
2019-06-01T16:11:22.681Z,102021.17
2019-06-01T16:16:24.709Z,102011.23
2019-06-01T16:21:26.553Z,102006.23
2019-06-01T16:26:28.183Z,101990.95
2019-06-01T16:31:32.125Z,101991.83
2019-06-01T16:36:34.039Z,101998.23
2019-06-01T16:41:35.821Z,102004.00
2019-06-01T16:46:43.034Z,101993.75
2019-06-01T16:51:56.406Z,101998.03
2019-06-01T16:57:05.239Z,101999.63
2019-06-01T17:02:07.931Z,101999.99
2019-06-01T17:07:10.367Z,101996.67
2019-06-01T17:12:15.240Z,101996.53
2019-06-01T17:17:17.378Z,101994.59
2019-06-01T17:22:19.245Z,101990.23
2019-06-01T17:27:21.060Z,101983.71
2019-06-01T17:32:24.552Z,101969.50
2019-06-01T17:37:26.572Z,101964.44
2019-06-01T17:42:28.567Z,101962.92
2019-06-01T17:47:32.747Z,101951.80
2019-06-01T17:52:36.416Z,101960.91
2019-06-01T17:57:38.962Z,101949.38
2019-06-01T18:02:40.826Z,101946.62
2019-06-01T18:07:46.132Z,101939.94
2019-06-01T18:12:48.066Z,101932.64
2019-06-01T18:17:54.171Z,101928.79
2019-06-01T18:23:00.483Z,101887.05
2019-06-01T18:28:07.145Z,101907.14
2019-06-01T18:33:09.501Z,101891.20
2019-06-01T18:38:13.019Z,101853.29
2019-06-01T18:43:17.297Z,101879.30
2019-06-01T18:48:19.707Z,101862.23
2019-06-01T18:53:21.885Z,101862.64
2019-06-01T18:58:24.060Z,101867.53
2019-06-01T19:03:25.975Z,101846.52
2019-06-01T19:08:28.096Z,101828.19
2019-06-01T19:13:31.886Z,101843.83
2019-06-01T19:18:34.317Z,101830.66
2019-06-01T19:23:36.333Z,101814.45
2019-06-01T19:28:39.162Z,101802.63
2019-06-01T19:33:42.871Z,101808.45
2019-06-01T19:38:45.395Z,101808.86
2019-06-01T19:43:49.827Z,101811.94
2019-06-01T19:48:51.568Z,101795.50
2019-06-01T19:53:53.392Z,101787.45
2019-06-01T19:58:57.442Z,101781.17
2019-06-01T20:03:59.331Z,101776.54
2019-06-01T20:09:01.146Z,101747.73
2019-06-01T20:14:03.483Z,101780.23
2019-06-01T20:19:06.534Z,101748.10
2019-06-01T20:24:09.656Z,101754.15
2019-06-01T20:29:12.745Z,101729.43
2019-06-01T20:34:15.868Z,101740.58
2019-06-01T20:39:18.282Z,101725.66
2019-06-01T20:44:20.968Z,101709.34
2019-06-01T20:49:24.450Z,101706.14
2019-06-01T20:54:27.560Z,101699.69
2019-06-01T20:59:31.896Z,101686.00
2019-06-01T21:04:36.737Z,101696.96
2019-06-01T21:09:38.653Z,101674.60
2019-06-01T21:14:41.114Z,101669.67
2019-06-01T21:19:43.132Z,101682.34
2019-06-01T21:24:45.087Z,101659.89
2019-06-01T21:29:48.665Z,101660.30
2019-06-01T21:34:50.690Z,101663.86
2019-06-01T21:39:52.504Z,101657.13
2019-06-01T21:44:54.377Z,101649.03
2019-06-01T21:49:56.262Z,101649.62
2019-06-01T21:54:58.326Z,101654.32
2019-06-01T22:00:02.720Z,101664.94
2019-06-01T22:05:05.222Z,101653.36
2019-06-01T22:10:07.865Z,101636.64
2019-06-01T22:15:12.763Z,101656.38
2019-06-01T22:20:16.013Z,101631.34
2019-06-01T22:25:18.491Z,101645.42
2019-06-01T22:30:22.429Z,101646.73
2019-06-01T22:35:24.783Z,101645.92
2019-06-01T22:40:29.520Z,101628.25
2019-06-01T22:45:31.366Z,101615.12
2019-06-01T22:50:33.307Z,101602.65
2019-06-01T22:55:35.501Z,101610.25
2019-06-01T23:00:37.310Z,101595.61
2019-06-01T23:05:39.207Z,101615.33
2019-06-01T23:10:41.097Z,101569.98
2019-06-01T23:15:43.149Z,101580.26
2019-06-01T23:20:44.964Z,101602.94
2019-06-01T23:25:51.686Z,101603.02
2019-06-01T23:30:53.533Z,101611.16
2019-06-01T23:35:56.261Z,101580.09
2019-06-01T23:40:58.074Z,101605.98
2019-06-01T23:46:00.010Z,101613.88
2019-06-01T23:51:01.900Z,101615.44
2019-06-01T23:56:03.889Z,101622.02
